Time;durP1;ratioP1;P1;durP2;ratioP2;P2;SDS_P1;SDS_P2;PMS_P1;PMS_P2;Temp;Humidity;BMP_temperature;BMP_pressure;BME280_temperature;BME280_humidity;BME280_pressure;Samples;Min_cycle;Max_cycle;Signal;HPM_P1;HPM_P2
2024/04/23 00:01:37;;;;;;;6.83;5.07;;;3.60;99.90;;;;;;5302966;27;20020;-85
2024/04/23 00:04:03;;;;;;;10.67;5.27;;;3.60;99.90;;;;;;5302114;27;19997;-85
2024/04/23 00:06:28;;;;;;;7.60;4.67;;;3.60;99.90;;;;;;5301701;27;20666;-86
2024/04/23 00:08:54;;;;;;;6.73;4.80;;;3.60;99.90;;;;;;5302564;27;20093;-84
2024/04/23 00:11:19;;;;;;;8.73;4.73;;;3.60;99.90;;;;;;5302856;27;20323;-85
2024/04/23 00:13:45;;;;;;;6.43;4.70;;;3.60;99.90;;;;;;5301761;27;20901;-84
2024/04/23 00:16:11;;;;;;;9.87;4.93;;;3.60;99.90;;;;;;5301707;27;20016;-85
2024/04/23 00:18:36;;;;;;;7.20;4.87;;;3.60;99.90;;;;;;5301702;26;20013;-85
2024/04/23 00:21:02;;;;;;;5.30;4.17;;;3.60;99.90;;;;;;5302055;27;20015;-85
2024/04/23 00:23:27;;;;;;;6.63;4.97;;;3.60;99.90;;;;;;5302457;27;20021;-85
2024/04/23 00:25:53;;;;;;;9.83;4.70;;;3.50;99.90;;;;;;5300549;27;20009;-85
2024/04/23 00:28:19;;;;;;;14.23;5.17;;;3.60;99.90;;;;;;5302785;27;20006;-84
2024/04/23 00:30:45;;;;;;;6.43;4.43;;;3.60;99.90;;;;;;5302633;27;20024;-85
2024/04/23 00:33:10;;;;;;;6.10;4.63;;;3.60;99.90;;;;;;5301539;27;20005;-85
2024/04/23 00:35:36;;;;;;;6.57;4.83;;;3.50;99.90;;;;;;5301503;27;20024;-85
2024/04/23 00:38:01;;;;;;;6.93;4.93;;;3.50;99.90;;;;;;5302188;27;20006;-85
2024/04/23 00:40:30;;;;;;;9.77;5.63;;;3.50;99.90;;;;;;5301053;27;20049;-85
2024/04/23 00:42:57;;;;;;;7.33;4.33;;;3.50;99.90;;;;;;5301976;27;21112;-84
2024/04/23 00:45:28;;;;;;;6.83;4.67;;;3.40;99.90;;;;;;5301894;26;20016;-85
2024/04/23 00:47:54;;;;;;;6.10;4.53;;;3.50;99.90;;;;;;5301280;27;20044;-85
2024/04/23 00:50:20;;;;;;;8.93;5.33;;;3.50;99.90;;;;;;5302122;27;20076;-85
2024/04/23 00:52:46;;;;;;;7.43;4.97;;;3.50;99.90;;;;;;5302033;27;20088;-84
2024/04/23 00:55:13;;;;;;;9.67;5.23;;;3.50;99.90;;;;;;5301576;27;20362;-86
2024/04/23 00:57:39;;;;;;;7.07;4.93;;;3.50;99.90;;;;;;5299695;26;20144;-86
2024/04/23 01:00:07;;;;;;;10.07;5.47;;;3.50;99.90;;;;;;5299975;26;20001;-85
2024/04/23 01:02:33;;;;;;;8.70;5.07;;;3.50;99.90;;;;;;5301497;27;20429;-85
2024/04/23 01:04:58;;;;;;;8.17;5.70;;;3.50;99.90;;;;;;5302139;27;20061;-85
2024/04/23 01:07:24;;;;;;;6.93;5.20;;;3.50;99.90;;;;;;5301257;27;20017;-85
2024/04/23 01:09:50;;;;;;;7.23;5.20;;;3.40;99.90;;;;;;5299272;27;20024;-85
2024/04/23 01:12:15;;;;;;;6.97;5.60;;;3.40;99.90;;;;;;5300841;27;20013;-85
2024/04/23 01:14:45;;;;;;;7.60;5.10;;;3.40;99.90;;;;;;5298260;27;20002;-85
2024/04/23 01:17:11;;;;;;;8.60;5.33;;;3.40;99.90;;;;;;5300966;27;20017;-85
2024/04/23 01:19:49;;;;;;;9.07;5.33;;;3.30;99.90;;;;;;5302147;27;20473;-85
2024/04/23 01:22:42;;;;;;;7.43;5.40;;;3.30;99.90;;;;;;5301345;26;20020;-85
2024/04/23 01:25:12;;;;;;;8.73;6.33;;;3.30;99.90;;;;;;5301363;27;20021;-84
2024/04/23 01:27:37;;;;;;;8.43;5.77;;;3.20;99.90;;;;;;5300461;27;20013;-86
2024/04/23 01:30:05;;;;;;;8.27;6.43;;;3.20;99.90;;;;;;5301021;26;20020;-84
2024/04/23 01:32:34;;;;;;;8.90;6.33;;;3.20;99.90;;;;;;5300526;27;20014;-85
2024/04/23 01:35:00;;;;;;;7.87;6.00;;;3.10;99.90;;;;;;5300905;26;20112;-85
2024/04/23 01:37:28;;;;;;;8.40;6.17;;;3.10;99.90;;;;;;5298634;27;20006;-85
2024/04/23 01:39:57;;;;;;;9.43;6.27;;;3.00;99.90;;;;;;5301350;27;20049;-85
2024/04/23 01:42:23;;;;;;;9.70;7.10;;;3.00;99.90;;;;;;5299830;27;20010;-85
2024/04/23 01:44:48;;;;;;;10.43;7.23;;;2.90;99.90;;;;;;5301310;26;20770;-84
2024/04/23 01:47:14;;;;;;;9.37;6.37;;;2.90;99.90;;;;;;5301484;26;20801;-85
2024/04/23 01:49:40;;;;;;;11.63;7.10;;;2.80;99.90;;;;;;5302071;27;20025;-86
2024/04/23 01:52:07;;;;;;;11.03;6.57;;;2.70;99.90;;;;;;5302359;27;20006;-86
2024/04/23 01:54:33;;;;;;;10.90;7.50;;;2.70;99.90;;;;;;5301031;27;20485;-85
2024/04/23 01:57:02;;;;;;;10.90;7.33;;;2.70;99.90;;;;;;5301355;27;20010;-85
2024/04/23 01:59:28;;;;;;;12.20;7.77;;;2.60;99.90;;;;;;5300518;26;20014;-85
2024/04/23 02:01:56;;;;;;;10.83;7.90;;;2.50;99.90;;;;;;5301119;27;20493;-85
2024/04/23 02:04:23;;;;;;;12.00;8.10;;;2.50;99.90;;;;;;5300102;27;20678;-85
2024/04/23 02:06:49;;;;;;;9.73;7.43;;;2.40;99.90;;;;;;5297566;27;20054;-85
2024/04/23 02:09:15;;;;;;;11.00;7.80;;;2.40;99.90;;;;;;5301602;27;20013;-85
2024/04/23 02:11:42;;;;;;;10.27;7.70;;;2.30;99.90;;;;;;5299657;27;20002;-85
2024/04/23 02:14:08;;;;;;;12.10;8.53;;;2.30;99.90;;;;;;5302380;26;20014;-85
2024/04/23 02:16:33;;;;;;;11.37;8.00;;;2.30;99.90;;;;;;5301084;27;20028;-85
2024/04/23 02:18:59;;;;;;;11.40;8.03;;;2.30;99.90;;;;;;5301996;27;20006;-84
2024/04/23 02:21:25;;;;;;;10.87;8.03;;;2.20;99.90;;;;;;5299589;27;20008;-84
2024/04/23 02:23:50;;;;;;;10.83;8.87;;;2.20;99.90;;;;;;5301213;27;20518;-85
2024/04/23 02:26:16;;;;;;;12.60;8.70;;;2.20;99.90;;;;;;5302752;27;19997;-84
2024/04/23 02:28:41;;;;;;;12.73;8.47;;;2.20;99.90;;;;;;5304157;27;20052;-84
2024/04/23 02:31:07;;;;;;;11.97;8.87;;;2.20;99.90;;;;;;5304709;26;20092;-85
2024/04/23 02:33:32;;;;;;;12.63;8.60;;;2.10;99.90;;;;;;5301883;27;20010;-85
2024/04/23 02:35:58;;;;;;;12.40;8.83;;;2.10;99.90;;;;;;5301728;27;20002;-85
2024/04/23 02:38:23;;;;;;;13.87;8.90;;;2.10;99.90;;;;;;5302875;27;21709;-85
2024/04/23 02:40:49;;;;;;;10.43;8.30;;;2.10;99.90;;;;;;5301882;27;19993;-85
2024/04/23 02:43:14;;;;;;;12.37;9.00;;;2.10;99.90;;;;;;5304401;27;19997;-85
2024/04/23 02:45:40;;;;;;;10.50;8.10;;;2.10;99.90;;;;;;5303413;27;20156;-85
2024/04/23 02:48:07;;;;;;;12.67;8.77;;;2.10;99.90;;;;;;5303904;27;20017;-85
2024/04/23 02:50:32;;;;;;;16.13;9.50;;;2.10;99.90;;;;;;5302885;26;20002;-84
2024/04/23 02:52:58;;;;;;;10.70;7.97;;;2.10;99.90;;;;;;5304092;27;20010;-86
2024/04/23 02:55:24;;;;;;;12.83;9.10;;;2.10;99.90;;;;;;5304539;27;20012;-85
2024/04/23 02:57:49;;;;;;;12.67;9.50;;;2.10;99.90;;;;;;5303944;27;20816;-85
2024/04/23 03:00:15;;;;;;;11.30;8.33;;;2.10;99.90;;;;;;5303694;27;20013;-83
2024/04/23 03:02:40;;;;;;;15.83;9.50;;;2.10;99.90;;;;;;5305150;27;20002;-84
2024/04/23 03:05:06;;;;;;;15.40;9.50;;;2.00;99.90;;;;;;5305063;27;20006;-84
2024/04/23 03:07:32;;;;;;;15.53;9.77;;;2.10;99.90;;;;;;5304826;27;19998;-83
2024/04/23 03:09:58;;;;;;;13.20;9.60;;;2.00;99.90;;;;;;5304961;27;20064;-83
2024/04/23 03:12:24;;;;;;;13.03;10.33;;;2.00;99.90;;;;;;5306307;27;20064;-83
2024/04/23 03:14:49;;;;;;;15.67;9.17;;;2.00;99.90;;;;;;5307291;27;20383;-83
2024/04/23 03:17:15;;;;;;;12.80;10.10;;;1.90;99.90;;;;;;5306806;27;20009;-83
2024/04/23 03:19:41;;;;;;;15.67;9.73;;;1.90;99.90;;;;;;5307442;27;19993;-83
2024/04/23 03:22:06;;;;;;;16.03;10.67;;;1.90;99.90;;;;;;5306675;27;20355;-82
2024/04/23 03:24:34;;;;;;;15.57;10.27;;;1.80;99.90;;;;;;5305619;27;20630;-83
2024/04/23 03:26:59;;;;;;;14.77;10.70;;;1.80;99.90;;;;;;5307098;26;20010;-83
2024/04/23 03:29:25;;;;;;;15.10;10.27;;;1.80;99.90;;;;;;5307121;27;19997;-83
2024/04/23 03:32:06;;;;;;;15.23;10.67;;;1.80;99.90;;;;;;5308155;27;20002;-82
2024/04/23 03:34:32;;;;;;;15.63;10.10;;;1.80;99.90;;;;;;5306846;27;20014;-82
2024/04/23 03:36:58;;;;;;;14.60;9.80;;;1.80;99.90;;;;;;5307010;26;20030;-82
2024/04/23 03:39:24;;;;;;;14.57;11.00;;;1.70;99.90;;;;;;5307962;27;20010;-82
2024/04/23 03:41:57;;;;;;;20.60;12.77;;;1.70;99.90;;;;;;5306038;27;20011;-82
2024/04/23 03:44:26;;;;;;;18.70;12.23;;;1.70;99.90;;;;;;5307557;27;20023;-83
2024/04/23 03:46:53;;;;;;;15.73;11.30;;;1.70;99.90;;;;;;5306229;26;20006;-83
2024/04/23 03:49:18;;;;;;;14.40;10.87;;;1.70;99.90;;;;;;5308771;26;19997;-83
2024/04/23 03:51:44;;;;;;;14.10;10.87;;;1.80;99.90;;;;;;5307277;27;20042;-83
2024/04/23 03:54:09;;;;;;;14.90;11.07;;;1.70;99.90;;;;;;5306220;27;20009;-84
2024/04/23 03:56:35;;;;;;;16.30;11.70;;;1.70;99.90;;;;;;5303661;27;20009;-83
2024/04/23 03:59:01;;;;;;;16.27;12.67;;;1.70;99.90;;;;;;5306870;27;20831;-83
2024/04/23 04:01:26;;;;;;;16.40;11.17;;;1.70;99.90;;;;;;5305119;27;20013;-84
2024/04/23 04:06:36;;;;;;;15.60;11.13;;;1.70;99.90;;;;;;5304723;27;20102;-83
2024/04/23 04:09:02;;;;;;;17.80;10.80;;;1.70;99.90;;;;;;5303358;27;20013;-83
2024/04/23 04:11:31;;;;;;;14.93;11.03;;;1.70;99.90;;;;;;5306095;27;20142;-82
2024/04/23 04:14:00;;;;;;;16.80;11.30;;;1.80;99.90;;;;;;5306548;27;20024;-83
2024/04/23 04:16:26;;;;;;;17.47;11.20;;;1.80;99.90;;;;;;5306907;27;20013;-84
2024/04/23 04:18:52;;;;;;;15.87;11.57;;;1.80;99.90;;;;;;5304918;26;20013;-83
2024/04/23 04:21:18;;;;;;;16.23;12.27;;;1.80;99.90;;;;;;5305694;27;19998;-82
2024/04/23 04:23:44;;;;;;;18.87;11.63;;;1.80;99.90;;;;;;5305250;27;20016;-83
2024/04/23 04:26:11;;;;;;;20.50;15.43;;;1.80;99.90;;;;;;5303102;27;20104;-83
2024/04/23 04:28:38;;;;;;;20.07;15.77;;;1.80;99.90;;;;;;5304173;26;20346;-84
2024/04/23 04:31:03;;;;;;;16.73;12.23;;;1.80;99.90;;;;;;5303838;27;20799;-83
2024/04/23 04:33:29;;;;;;;18.40;13.10;;;1.70;99.90;;;;;;5303405;27;20053;-83
2024/04/23 04:35:55;;;;;;;18.90;13.63;;;1.70;99.90;;;;;;5303342;26;20009;-83
2024/04/23 04:38:21;;;;;;;19.27;13.30;;;1.70;99.90;;;;;;5305421;27;20013;-83
2024/04/23 04:40:46;;;;;;;20.60;13.30;;;1.70;99.90;;;;;;5305820;27;19994;-83
2024/04/23 04:43:12;;;;;;;19.13;14.77;;;1.80;99.90;;;;;;5305763;27;20001;-83
2024/04/23 04:45:37;;;;;;;17.30;12.97;;;1.80;99.90;;;;;;5299982;27;20033;-73
2024/04/23 04:48:03;;;;;;;19.00;12.97;;;1.80;99.90;;;;;;5294855;27;20056;-82
2024/04/23 04:50:30;;;;;;;19.30;12.90;;;1.80;99.90;;;;;;5301294;27;20021;-83
2024/04/23 04:52:55;;;;;;;16.97;12.97;;;1.70;99.90;;;;;;5305211;27;20010;-82
2024/04/23 04:55:21;;;;;;;16.03;12.57;;;1.80;99.90;;;;;;5305482;27;20005;-83
2024/04/23 04:57:47;;;;;;;17.27;12.53;;;1.80;99.90;;;;;;5303310;27;20009;-82
2024/04/23 05:00:12;;;;;;;18.93;14.30;;;1.80;99.90;;;;;;5302848;27;20009;-83
2024/04/23 05:02:38;;;;;;;19.77;14.00;;;1.80;99.90;;;;;;5305275;27;20024;-82
2024/04/23 05:05:04;;;;;;;20.67;13.10;;;1.80;99.90;;;;;;5305564;26;20021;-83
2024/04/23 05:07:29;;;;;;;17.17;12.80;;;1.80;99.90;;;;;;5304579;27;20001;-83
2024/04/23 05:09:56;;;;;;;18.67;12.30;;;1.80;99.90;;;;;;5306225;27;20013;-82
2024/04/23 05:12:22;;;;;;;19.57;12.30;;;1.80;99.90;;;;;;5305689;27;20009;-82
2024/04/23 05:14:48;;;;;;;18.07;13.40;;;1.80;99.90;;;;;;5303317;26;19997;-82
2024/04/23 05:17:13;;;;;;;18.07;13.90;;;1.80;99.90;;;;;;5304940;27;20002;-82
2024/04/23 05:19:39;;;;;;;17.87;13.80;;;1.80;99.90;;;;;;5304437;27;20016;-81
2024/04/23 05:22:05;;;;;;;22.53;14.43;;;1.90;99.90;;;;;;5296687;26;20006;-82
2024/04/23 05:24:30;;;;;;;19.73;13.07;;;1.80;99.90;;;;;;5304855;27;20021;-83
2024/04/23 05:26:56;;;;;;;21.20;13.77;;;1.80;99.90;;;;;;5301771;27;20001;-83
2024/04/23 05:29:21;;;;;;;24.63;13.80;;;1.90;99.90;;;;;;5310770;27;20373;-89
2024/04/23 05:34:33;;;;;;;19.00;11.83;;;1.90;99.90;;;;;;5389965;21;20092;-85
2024/04/23 05:37:03;;;;;;;35.03;21.77;;;1.90;99.90;;;;;;5294606;27;20018;-90
2024/04/23 05:39:34;;;;;;;17.87;11.83;;;1.90;99.90;;;;;;5283963;27;20010;-85
2024/04/23 05:42:00;;;;;;;17.87;13.07;;;1.90;99.90;;;;;;5376896;21;20005;-85
2024/04/23 05:44:26;;;;;;;18.67;12.27;;;1.90;99.90;;;;;;5309971;27;20472;-84
2024/04/23 05:46:51;;;;;;;17.67;12.67;;;2.00;99.90;;;;;;5295521;27;20017;-89
2024/04/23 05:49:55;;;;;;;18.87;12.93;;;2.00;99.90;;;;;;5282278;27;20002;-88
2024/04/23 05:52:58;;;;;;;15.70;11.90;;;2.00;99.90;;;;;;5282261;27;20002;-89
2024/04/23 05:55:36;;;;;;;16.07;12.73;;;2.00;99.90;;;;;;5270288;27;20021;-84
2024/04/23 05:58:02;;;;;;;14.87;11.40;;;2.00;99.90;;;;;;5263904;27;19999;-85
2024/04/23 06:00:28;;;;;;;18.77;12.87;;;2.00;99.90;;;;;;5263759;27;20065;-84
2024/04/23 06:02:54;;;;;;;17.53;13.17;;;2.00;99.90;;;;;;5265791;27;19999;-86
2024/04/23 06:05:19;;;;;;;18.50;13.77;;;2.00;99.90;;;;;;5267515;27;20112;-86
2024/04/23 06:07:45;;;;;;;17.53;12.87;;;2.00;99.90;;;;;;5266219;27;20018;-84
2024/04/23 06:10:11;;;;;;;17.57;12.90;;;2.00;99.90;;;;;;5266834;27;20010;-85
2024/04/23 06:12:36;;;;;;;18.77;12.87;;;2.00;99.90;;;;;;5267214;27;20021;-84
2024/04/23 06:15:02;;;;;;;16.47;12.63;;;2.00;99.90;;;;;;5265068;27;20010;-84
2024/04/23 06:17:29;;;;;;;19.30;12.50;;;2.10;99.90;;;;;;5265737;27;20371;-85
2024/04/23 06:19:55;;;;;;;16.30;11.83;;;2.10;99.90;;;;;;5270390;27;20105;-85
2024/04/23 06:22:23;;;;;;;17.40;12.60;;;2.10;99.90;;;;;;5264869;27;20006;-83
2024/04/23 06:24:50;;;;;;;15.87;12.07;;;2.10;99.90;;;;;;5266968;27;20007;-83
2024/04/23 06:27:20;;;;;;;18.97;12.80;;;2.10;99.90;;;;;;5265902;27;20009;-86
2024/04/23 06:30:02;;;;;;;16.23;11.90;;;2.10;99.90;;;;;;5266838;27;20042;-85
2024/04/23 06:32:28;;;;;;;15.90;12.80;;;2.10;99.90;;;;;;5264082;27;19994;-84
2024/04/23 06:34:53;;;;;;;16.37;12.47;;;2.10;99.90;;;;;;5265120;27;20021;-84
2024/04/23 06:37:19;;;;;;;16.80;12.40;;;2.10;99.90;;;;;;5266916;27;20053;-84
2024/04/23 06:39:45;;;;;;;16.60;12.40;;;2.10;99.90;;;;;;5266330;27;20002;-87
2024/04/23 06:42:11;;;;;;;19.60;12.27;;;2.10;99.90;;;;;;5266889;27;20029;-85
2024/04/23 06:44:37;;;;;;;19.93;13.37;;;2.10;99.90;;;;;;5253340;27;20030;-84
2024/04/23 06:47:02;;;;;;;28.13;16.10;;;2.20;99.90;;;;;;5265253;27;20016;-85
2024/04/23 06:49:28;;;;;;;15.93;12.50;;;2.10;99.90;;;;;;5267822;27;20006;-84
2024/04/23 06:51:54;;;;;;;16.37;12.70;;;2.20;99.90;;;;;;5267079;27;20010;-84
2024/04/23 06:54:20;;;;;;;16.83;11.67;;;2.10;99.90;;;;;;5264957;27;20464;-84
2024/04/23 06:56:46;;;;;;;16.33;12.47;;;2.20;99.90;;;;;;5266256;27;20120;-85
2024/04/23 06:59:11;;;;;;;17.53;12.70;;;2.20;99.90;;;;;;5261858;27;20006;-84
2024/04/23 07:01:37;;;;;;;16.33;12.53;;;2.20;99.90;;;;;;5262148;27;20442;-85
2024/04/23 07:04:02;;;;;;;18.43;12.83;;;2.20;99.90;;;;;;5266127;27;20072;-89
2024/04/23 07:06:29;;;;;;;16.20;12.17;;;2.20;99.90;;;;;;5267708;27;20006;-83
2024/04/23 07:08:54;;;;;;;17.07;12.70;;;2.20;99.90;;;;;;5273741;27;20017;-87
2024/04/23 07:11:20;;;;;;;19.63;12.57;;;2.20;99.90;;;;;;5273542;27;21395;-84
2024/04/23 07:13:46;;;;;;;16.97;11.90;;;2.20;99.90;;;;;;5269971;27;20030;-84
2024/04/23 07:16:14;;;;;;;18.07;12.20;;;2.30;99.90;;;;;;5264603;27;20013;-86
2024/04/23 07:18:41;;;;;;;19.93;13.23;;;2.30;99.90;;;;;;5267023;27;21684;-85
2024/04/23 07:21:07;;;;;;;18.50;13.37;;;2.30;99.90;;;;;;5264486;27;20080;-84
2024/04/23 07:23:33;;;;;;;16.67;12.87;;;2.30;99.90;;;;;;5264823;27;20006;-87
2024/04/23 07:25:59;;;;;;;17.07;12.30;;;2.30;99.90;;;;;;5267156;27;20077;-86
2024/04/23 07:28:25;;;;;;;18.37;12.50;;;2.30;99.90;;;;;;5267187;27;20010;-85
2024/04/23 07:30:51;;;;;;;17.43;12.60;;;2.30;99.90;;;;;;5267256;27;20018;-85
2024/04/23 07:33:18;;;;;;;16.17;11.80;;;2.30;99.90;;;;;;5266741;27;21684;-86
2024/04/23 07:35:44;;;;;;;18.50;12.77;;;2.40;99.90;;;;;;5264741;27;20002;-85
2024/04/23 07:38:10;;;;;;;16.77;12.80;;;2.40;99.90;;;;;;5265963;27;20024;-84
2024/04/23 07:40:36;;;;;;;15.47;11.63;;;2.40;99.90;;;;;;5265164;27;20006;-84
2024/04/23 07:43:03;;;;;;;14.93;11.93;;;2.40;99.90;;;;;;5264954;27;20017;-85
2024/04/23 07:45:29;;;;;;;15.43;11.77;;;2.40;99.90;;;;;;5264135;27;20006;-91
2024/04/23 07:47:55;;;;;;;16.23;12.23;;;2.50;99.90;;;;;;5264444;27;20010;-84
2024/04/23 07:50:21;;;;;;;15.10;12.00;;;2.50;99.90;;;;;;5259325;27;20340;-84
2024/04/23 07:52:46;;;;;;;16.67;12.23;;;2.60;99.90;;;;;;5265354;27;20010;-84
2024/04/23 07:55:12;;;;;;;15.83;11.70;;;2.60;99.90;;;;;;5267324;27;20468;-85
2024/04/23 07:57:38;;;;;;;17.53;12.07;;;2.70;99.90;;;;;;5263446;27;20058;-85
2024/04/23 08:00:04;;;;;;;16.77;11.73;;;2.80;99.90;;;;;;5264661;27;21022;-84
2024/04/23 08:02:29;;;;;;;13.70;11.17;;;2.80;99.90;;;;;;5266020;27;20514;-86
2024/04/23 08:04:55;;;;;;;15.00;11.07;;;2.90;99.90;;;;;;5266408;27;20010;-84
2024/04/23 08:07:22;;;;;;;14.23;11.37;;;2.90;99.90;;;;;;5265489;27;20046;-85
2024/04/23 08:09:49;;;;;;;14.30;10.83;;;2.80;99.90;;;;;;5266475;27;20014;-84
2024/04/23 08:12:14;;;;;;;14.43;11.40;;;2.80;99.90;;;;;;5266541;27;20025;-84
2024/04/23 08:14:40;;;;;;;15.33;11.83;;;2.80;99.90;;;;;;5267467;27;21089;-87
2024/04/23 08:17:05;;;;;;;14.43;11.53;;;2.90;99.90;;;;;;5266027;27;20022;-87
2024/04/23 08:19:31;;;;;;;14.13;11.23;;;2.90;99.90;;;;;;5267452;27;20010;-84
2024/04/23 08:21:56;;;;;;;13.53;10.23;;;2.90;99.90;;;;;;5267751;27;20011;-83
2024/04/23 08:24:22;;;;;;;15.33;10.70;;;2.90;99.90;;;;;;5265396;27;20006;-88
2024/04/23 08:26:47;;;;;;;12.87;10.10;;;3.10;99.90;;;;;;5265076;27;20087;-84
2024/04/23 08:29:13;;;;;;;11.77;9.57;;;3.00;99.90;;;;;;5269283;27;20054;-85
2024/04/23 08:31:38;;;;;;;14.80;11.97;;;3.10;99.90;;;;;;5269089;27;19998;-85
2024/04/23 08:34:04;;;;;;;13.00;10.27;;;3.00;99.90;;;;;;5267585;27;20013;-84
2024/04/23 08:36:31;;;;;;;14.27;10.60;;;3.00;99.90;;;;;;5266153;27;20475;-85
2024/04/23 08:38:57;;;;;;;13.87;11.17;;;3.00;99.90;;;;;;5265909;27;20021;-85
2024/04/23 08:41:26;;;;;;;12.73;10.53;;;3.00;99.90;;;;;;5266666;27;20006;-85
2024/04/23 08:44:06;;;;;;;12.63;10.13;;;3.10;99.90;;;;;;5266020;27;20026;-87
2024/04/23 08:46:32;;;;;;;12.80;10.00;;;3.10;99.90;;;;;;5266334;27;20010;-87
2024/04/23 08:48:58;;;;;;;14.37;10.30;;;3.10;99.90;;;;;;5266575;27;20007;-85
2024/04/23 08:51:23;;;;;;;11.73;10.07;;;3.10;99.90;;;;;;5267804;27;20002;-84
2024/04/23 08:53:49;;;;;;;14.87;9.77;;;3.10;99.90;;;;;;5267182;27;20022;-84
2024/04/23 08:56:22;;;;;;;14.17;10.50;;;3.10;99.90;;;;;;5265699;27;20077;-85
2024/04/23 08:58:52;;;;;;;13.50;10.83;;;3.10;99.90;;;;;;5259114;27;20042;-87
2024/04/23 09:01:27;;;;;;;11.37;9.57;;;3.10;99.90;;;;;;5261368;27;20007;-85
2024/04/23 09:03:59;;;;;;;15.33;11.30;;;3.20;99.90;;;;;;5266531;27;20028;-85
2024/04/23 09:06:26;;;;;;;16.57;12.40;;;3.20;99.90;;;;;;5266990;27;20014;-87
2024/04/23 09:08:52;;;;;;;14.33;10.73;;;3.20;99.90;;;;;;5266196;27;20184;-85
2024/04/23 09:11:18;;;;;;;15.03;10.10;;;3.20;99.90;;;;;;5267569;27;20003;-85
2024/04/23 09:13:44;;;;;;;14.13;10.83;;;3.20;99.90;;;;;;5267405;27;20018;-86
2024/04/23 09:16:10;;;;;;;14.90;12.40;;;3.20;99.90;;;;;;5265934;27;20007;-85
2024/04/23 09:18:35;;;;;;;14.73;11.70;;;3.20;99.90;;;;;;5268443;27;20014;-85
2024/04/23 09:21:02;;;;;;;15.80;11.50;;;3.20;99.90;;;;;;5265254;27;20009;-86
2024/04/23 09:23:32;;;;;;;13.00;10.37;;;3.20;99.90;;;;;;5268424;27;20041;-86
2024/04/23 09:26:03;;;;;;;13.97;10.97;;;3.30;99.90;;;;;;5268208;27;20020;-85
2024/04/23 09:28:33;;;;;;;13.70;10.23;;;3.40;99.90;;;;;;5266875;27;20002;-87
2024/04/23 09:30:59;;;;;;;16.40;12.13;;;3.40;99.90;;;;;;5268207;27;20006;-85
2024/04/23 09:33:28;;;;;;;25.17;18.27;;;3.50;99.90;;;;;;5268833;27;20013;-85
2024/04/23 09:36:09;;;;;;;14.67;10.53;;;3.50;99.90;;;;;;5269306;27;20014;-84
2024/04/23 09:38:39;;;;;;;22.03;15.13;;;3.60;99.90;;;;;;5270177;27;20080;-85
2024/04/23 09:41:09;;;;;;;19.83;13.93;;;3.50;99.90;;;;;;5268375;27;20399;-88
2024/04/23 09:43:36;;;;;;;12.00;9.40;;;3.50;99.90;;;;;;5269627;27;20010;-85
2024/04/23 09:46:03;;;;;;;15.93;10.53;;;3.50;99.90;;;;;;5268970;27;20018;-86
2024/04/23 09:48:32;;;;;;;15.27;12.20;;;3.40;99.90;;;;;;5265239;27;20010;-87
2024/04/23 09:51:07;;;;;;;14.30;10.60;;;3.30;99.90;;;;;;5269747;27;20402;-86
2024/04/23 09:53:37;;;;;;;18.73;14.50;;;3.30;99.90;;;;;;5266738;27;20014;-88
2024/04/23 09:56:09;;;;;;;14.47;11.83;;;3.30;99.90;;;;;;5264260;27;20002;-87
2024/04/23 09:58:35;;;;;;;13.47;11.07;;;3.30;99.90;;;;;;5270007;27;20064;-87
2024/04/23 10:01:02;;;;;;;14.33;11.60;;;3.30;99.90;;;;;;5268067;27;20048;-87
2024/04/23 10:03:29;;;;;;;16.70;11.10;;;3.20;99.90;;;;;;5267938;27;20018;-84
2024/04/23 10:06:06;;;;;;;14.53;11.27;;;3.30;99.90;;;;;;5268228;27;20014;-84
2024/04/23 10:08:52;;;;;;;15.50;10.80;;;3.30;99.90;;;;;;5268506;27;20083;-87
2024/04/23 10:11:43;;;;;;;12.37;10.43;;;3.20;99.90;;;;;;5266638;27;20010;-85
2024/04/23 10:14:22;;;;;;;12.90;10.30;;;3.30;99.90;;;;;;5256107;27;20006;-86
2024/04/23 10:16:52;;;;;;;13.07;10.10;;;3.30;99.90;;;;;;5268531;27;20007;-85
2024/04/23 10:19:19;;;;;;;12.07;10.23;;;3.30;99.90;;;;;;5269932;27;20049;-85
2024/04/23 10:21:45;;;;;;;13.73;11.30;;;3.30;99.90;;;;;;5266059;27;20002;-85
2024/04/23 10:24:13;;;;;;;17.37;13.00;;;3.30;99.90;;;;;;5269250;27;20135;-85
2024/04/23 10:26:42;;;;;;;17.23;11.47;;;3.20;99.90;;;;;;5263677;27;20013;-89
2024/04/23 10:29:08;;;;;;;16.73;11.93;;;3.20;99.90;;;;;;5253005;27;20017;-89
2024/04/23 10:31:34;;;;;;;16.00;12.30;;;3.30;99.90;;;;;;5249783;27;20029;-89
2024/04/23 10:34:03;;;;;;;13.63;10.47;;;3.40;99.90;;;;;;5241671;27;20006;-89
2024/04/23 10:36:30;;;;;;;15.37;11.33;;;3.40;99.90;;;;;;5257931;27;20015;-88
2024/04/23 10:39:00;;;;;;;15.70;12.43;;;3.40;99.90;;;;;;5267706;27;20892;-89
2024/04/23 10:41:29;;;;;;;20.43;14.53;;;3.40;99.90;;;;;;5258847;27;20261;-88
2024/04/23 10:43:56;;;;;;;12.43;9.87;;;3.40;99.90;;;;;;5268337;27;20014;-88
2024/04/23 10:46:22;;;;;;;13.60;10.73;;;3.50;99.90;;;;;;5264252;27;20817;-89
2024/04/23 10:48:55;;;;;;;17.43;12.83;;;3.40;99.90;;;;;;5264633;27;20010;-88
2024/04/23 10:51:22;;;;;;;13.63;10.53;;;3.40;99.90;;;;;;5261842;27;20025;-88
2024/04/23 10:53:48;;;;;;;13.97;9.83;;;3.40;99.90;;;;;;5263177;27;20034;-89
2024/04/23 10:56:26;;;;;;;12.00;9.10;;;3.40;99.90;;;;;;5263017;27;20010;-88
2024/04/23 10:59:11;;;;;;;14.77;10.20;;;3.30;99.90;;;;;;5262758;27;20010;-89
2024/04/23 11:01:57;;;;;;;13.23;10.27;;;3.30;99.90;;;;;;5259929;27;20014;-89
2024/04/23 11:04:36;;;;;;;12.40;9.13;;;3.20;99.90;;;;;;5261728;27;20117;-88
2024/04/23 11:07:04;;;;;;;13.83;10.63;;;3.20;99.90;;;;;;5261003;27;20010;-88
2024/04/23 11:09:38;;;;;;;13.57;10.63;;;3.10;99.90;;;;;;5260385;27;20455;-88
2024/04/23 11:12:25;;;;;;;12.70;9.75;;;3.10;99.90;;;;;;5262148;27;20062;-88
2024/04/23 11:14:52;;;;;;;13.77;10.43;;;3.10;99.90;;;;;;5259505;27;20010;-88
2024/04/23 11:17:18;;;;;;;13.13;10.07;;;3.10;99.90;;;;;;5263197;27;21799;-89
2024/04/23 11:19:48;;;;;;;11.80;9.67;;;3.10;99.90;;;;;;5262433;27;20025;-87
2024/04/23 11:22:15;;;;;;;14.10;9.77;;;3.20;99.90;;;;;;5263272;27;20056;-88
2024/04/23 11:24:42;;;;;;;12.70;9.17;;;3.20;99.90;;;;;;5262167;27;20082;-88
2024/04/23 11:27:12;;;;;;;14.73;10.80;;;3.20;99.90;;;;;;5262259;27;20002;-87
2024/04/23 11:29:46;;;;;;;15.13;10.13;;;3.30;99.90;;;;;;5261574;27;20085;-87
2024/04/23 11:32:12;;;;;;;12.60;10.40;;;3.20;99.90;;;;;;5263454;27;20323;-88
2024/04/23 11:34:42;;;;;;;14.10;10.00;;;3.20;99.90;;;;;;5257553;27;20017;-88
2024/04/23 11:37:09;;;;;;;13.77;10.03;;;3.20;99.90;;;;;;5257284;27;20010;-87
2024/04/23 11:39:34;;;;;;;17.07;11.07;;;3.20;99.90;;;;;;5262911;27;20007;-87
2024/04/23 11:42:00;;;;;;;13.47;9.37;;;3.20;99.90;;;;;;5263266;27;20084;-87
2024/04/23 11:44:29;;;;;;;14.33;10.20;;;3.20;99.90;;;;;;5266565;27;20035;-87
2024/04/23 11:46:56;;;;;;;11.90;9.47;;;3.20;99.90;;;;;;5268417;27;20474;-88
2024/04/23 11:49:23;;;;;;;32.83;19.33;;;3.30;99.90;;;;;;5267015;27;20013;-87
2024/04/23 11:51:50;;;;;;;14.70;11.27;;;3.20;99.90;;;;;;5262738;27;20077;-88
2024/04/23 11:54:16;;;;;;;20.43;13.67;;;3.20;99.90;;;;;;5266191;27;20029;-88
2024/04/23 11:56:42;;;;;;;32.87;19.60;;;3.30;99.90;;;;;;5258202;27;20010;-87
2024/04/23 11:59:08;;;;;;;14.17;10.60;;;3.30;99.90;;;;;;5261713;27;20990;-87
2024/04/23 12:01:36;;;;;;;15.17;9.53;;;3.30;99.90;;;;;;5262292;27;20799;-87
2024/04/23 12:04:02;;;;;;;14.43;11.00;;;3.30;99.90;;;;;;5257471;27;20013;-87
2024/04/23 12:06:28;;;;;;;21.90;14.43;;;3.30;99.90;;;;;;5280752;27;20351;-87
2024/04/23 12:08:54;;;;;;;12.20;9.20;;;3.30;99.90;;;;;;5263976;27;21725;-88
2024/04/23 12:11:20;;;;;;;14.10;10.43;;;3.30;99.90;;;;;;5264216;27;20006;-88
2024/04/23 12:13:49;;;;;;;14.77;10.63;;;3.30;99.90;;;;;;5260868;27;20003;-88
2024/04/23 12:16:16;;;;;;;12.30;10.10;;;3.30;99.90;;;;;;5262938;27;20010;-88
2024/04/23 12:18:42;;;;;;;14.43;11.03;;;3.20;99.90;;;;;;5261767;27;20037;-87
2024/04/23 12:21:09;;;;;;;13.73;10.63;;;3.20;99.90;;;;;;5259256;27;20467;-88
2024/04/23 12:23:35;;;;;;;13.60;11.67;;;3.20;99.90;;;;;;5262908;27;20021;-87
2024/04/23 12:26:00;;;;;;;14.83;11.30;;;3.10;99.90;;;;;;5260960;27;20017;-88
2024/04/23 12:28:26;;;;;;;15.10;10.63;;;3.20;99.90;;;;;;5262144;27;20018;-88
2024/04/23 12:30:52;;;;;;;15.33;10.77;;;3.20;99.90;;;;;;5262799;27;20007;-89
2024/04/23 12:33:18;;;;;;;14.13;11.30;;;3.20;99.90;;;;;;5262393;27;20006;-89
2024/04/23 12:35:43;;;;;;;20.23;11.10;;;3.20;99.90;;;;;;5256270;27;20092;-88
2024/04/23 12:38:09;;;;;;;17.27;11.23;;;3.20;99.90;;;;;;5256184;27;20014;-86
2024/04/23 12:40:36;;;;;;;13.83;10.40;;;3.30;99.90;;;;;;5261711;27;20105;-86
2024/04/23 12:43:10;;;;;;;18.37;10.90;;;3.30;99.90;;;;;;5259929;27;20422;-87
2024/04/23 12:45:36;;;;;;;14.00;10.60;;;3.30;99.90;;;;;;5260646;27;20012;-87
2024/04/23 12:48:03;;;;;;;14.43;11.13;;;3.30;99.90;;;;;;5260691;27;20054;-87